createdAt,value
2019-04-16T00:03:00.294Z,14.40
2019-04-16T00:05:49.843Z,14.07
2019-04-16T00:08:28.819Z,14.03
2019-04-16T00:11:31.670Z,13.90
2019-04-16T00:14:16.562Z,13.83
2019-04-16T00:16:47.530Z,13.70
2019-04-16T00:19:18.987Z,13.60
2019-04-16T00:22:01.531Z,12.93
2019-04-16T00:24:38.603Z,13.83
2019-04-16T00:27:09.708Z,12.70
2019-04-16T00:29:40.746Z,13.25
2019-04-16T00:32:17.515Z,13.23
2019-04-16T00:34:50.562Z,13.30
2019-04-16T00:37:24.100Z,15.93
2019-04-16T00:39:56.844Z,13.63
2019-04-16T00:42:28.372Z,13.20
2019-04-16T00:44:59.639Z,14.13
2019-04-16T00:47:31.103Z,13.48
2019-04-16T00:50:02.215Z,13.37
2019-04-16T00:52:36.712Z,13.40
2019-04-16T00:55:08.125Z,12.87
2019-04-16T00:57:38.914Z,13.27
2019-04-16T01:00:10.621Z,13.73
2019-04-16T01:02:41.682Z,15.15
2019-04-16T01:05:12.254Z,14.73
2019-04-16T01:07:42.942Z,18.93
2019-04-16T01:10:14.093Z,13.47
2019-04-16T01:12:44.977Z,13.50
2019-04-16T01:15:15.815Z,13.40
2019-04-16T01:17:47.114Z,12.73
2019-04-16T01:20:17.924Z,13.97
2019-04-16T01:22:49.016Z,13.95
2019-04-16T01:25:23.286Z,13.03
2019-04-16T01:28:00.968Z,13.50
2019-04-16T01:30:43.765Z,13.77
2019-04-16T01:33:21.241Z,13.20
2019-04-16T01:36:05.172Z,12.80
2019-04-16T01:39:15.254Z,13.17
2019-04-16T01:41:33.787Z,12.63
2019-04-16T01:44:05.165Z,13.10
2019-04-16T01:46:37.421Z,13.00
2019-04-16T01:49:10.293Z,12.73
2019-04-16T01:51:41.098Z,12.47
2019-04-16T01:54:13.102Z,12.93
2019-04-16T01:56:44.315Z,12.47
2019-04-16T01:59:15.245Z,12.97
2019-04-16T02:01:46.217Z,12.88
2019-04-16T02:04:19.600Z,13.40
2019-04-16T02:06:50.962Z,12.40
2019-04-16T02:09:23.119Z,13.00
2019-04-16T02:11:54.072Z,12.30
2019-04-16T02:14:26.215Z,12.80
2019-04-16T02:16:57.440Z,12.28
2019-04-16T02:19:32.471Z,12.33
2019-04-16T02:22:01.275Z,13.00
2019-04-16T02:24:32.471Z,12.67
2019-04-16T02:27:04.927Z,12.77
2019-04-16T02:29:36.959Z,12.93
2019-04-16T02:32:08.017Z,12.40
2019-04-16T02:34:43.166Z,12.73
2019-04-16T02:37:13.899Z,13.00
2019-04-16T02:39:49.229Z,13.00
2019-04-16T02:42:18.505Z,12.43
2019-04-16T02:45:00.959Z,13.00
2019-04-16T02:47:31.913Z,13.32
2019-04-16T02:50:05.165Z,12.33
2019-04-16T02:52:53.425Z,13.43
2019-04-16T02:55:42.651Z,13.32
2019-04-16T02:58:35.358Z,12.63
2019-04-16T03:01:25.081Z,12.83
2019-04-16T03:04:01.480Z,12.80
2019-04-16T03:06:35.405Z,13.10
2019-04-16T03:09:09.947Z,13.10
2019-04-16T03:11:41.738Z,12.73
2019-04-16T03:14:13.285Z,13.70
2019-04-16T03:17:01.087Z,15.63
2019-04-16T03:19:34.920Z,13.80
2019-04-16T03:22:06.635Z,14.27
2019-04-16T03:24:39.745Z,13.27
2019-04-16T03:27:10.440Z,12.93
2019-04-16T03:29:41.730Z,14.18
2019-04-16T03:32:14.992Z,14.33
2019-04-16T03:34:45.889Z,13.30
2019-04-16T03:37:17.214Z,13.43
2019-04-16T03:39:48.469Z,13.10
2019-04-16T03:42:19.372Z,14.20
2019-04-16T03:44:50.603Z,13.13
2019-04-16T03:47:21.456Z,14.40
2019-04-16T03:49:52.348Z,13.80
2019-04-16T03:52:23.399Z,13.60
2019-04-16T03:54:54.729Z,13.78
2019-04-16T03:57:26.963Z,14.23
2019-04-16T04:00:00.674Z,14.60
2019-04-16T04:02:31.301Z,13.43
2019-04-16T04:05:06.357Z,14.60
2019-04-16T04:07:35.585Z,13.80
2019-04-16T04:10:06.975Z,13.30
2019-04-16T04:12:37.916Z,14.53
2019-04-16T04:15:08.923Z,13.57
2019-04-16T04:17:43.572Z,13.73
2019-04-16T04:20:18.096Z,14.63
2019-04-16T04:22:47.628Z,13.90
2019-04-16T04:25:18.956Z,14.30
2019-04-16T04:27:52.371Z,13.93
2019-04-16T04:30:25.688Z,14.50
2019-04-16T04:32:58.053Z,14.33
2019-04-16T04:35:31.318Z,14.67
2019-04-16T04:38:04.176Z,14.10
2019-04-16T04:40:44.281Z,14.37
2019-04-16T04:43:11.542Z,14.10
2019-04-16T04:45:42.658Z,14.20
2019-04-16T04:48:13.342Z,13.80
2019-04-16T04:50:45.297Z,14.23
2019-04-16T04:53:19.220Z,13.67
2019-04-16T04:55:49.819Z,14.00
2019-04-16T04:58:20.911Z,14.00
2019-04-16T05:00:52.461Z,13.50
2019-04-16T05:03:36.598Z,15.20
2019-04-16T05:06:28.032Z,17.43
2019-04-16T05:09:00.416Z,17.07
2019-04-16T05:11:31.771Z,17.33
2019-04-16T05:14:02.695Z,18.57
2019-04-16T05:16:35.023Z,19.50
2019-04-16T05:19:14.874Z,18.23
2019-04-16T05:21:54.222Z,19.27
2019-04-16T05:24:33.147Z,18.97
2019-04-16T05:27:08.560Z,18.30
2019-04-16T05:29:38.174Z,18.67
2019-04-16T05:32:10.009Z,18.73
2019-04-16T05:34:41.112Z,19.82
2019-04-16T05:37:12.348Z,18.93
2019-04-16T05:39:43.109Z,19.47
2019-04-16T05:42:14.047Z,19.45
2019-04-16T05:44:44.932Z,20.00
2019-04-16T05:47:18.289Z,20.40
2019-04-16T05:49:49.369Z,20.87
2019-04-16T05:52:20.446Z,19.97
2019-04-16T05:55:06.274Z,20.43
2019-04-16T05:57:39.163Z,21.93
2019-04-16T06:00:22.060Z,22.87
2019-04-16T06:02:52.961Z,22.77
2019-04-16T06:05:27.906Z,23.47
2019-04-16T06:08:10.502Z,20.63
2019-04-16T06:10:42.078Z,22.17
2019-04-16T06:13:47.379Z,21.33
2019-04-16T06:16:37.592Z,22.77
2019-04-16T06:19:20.903Z,20.97
2019-04-16T06:22:22.036Z,22.33
2019-04-16T06:25:20.376Z,21.30
2019-04-16T06:28:10.052Z,22.37
2019-04-16T06:31:04.902Z,21.83
2019-04-16T06:33:50.122Z,21.20
2019-04-16T06:36:38.218Z,22.20
2019-04-16T06:39:19.945Z,22.47
2019-04-16T06:42:13.974Z,25.00
2019-04-16T06:45:07.062Z,25.20
2019-04-16T06:47:58.319Z,26.50
2019-04-16T06:50:51.147Z,30.93
2019-04-16T06:53:44.570Z,31.45
2019-04-16T06:56:43.951Z,36.87
2019-04-16T06:59:34.167Z,36.13
2019-04-16T07:02:24.611Z,32.13
2019-04-16T07:05:06.203Z,30.00
2019-04-16T07:08:05.557Z,29.93
2019-04-16T07:10:44.594Z,30.50
2019-04-16T07:13:16.551Z,31.03
2019-04-16T07:15:47.757Z,29.10
2019-04-16T07:18:21.277Z,25.97
2019-04-16T07:20:56.092Z,25.08
2019-04-16T07:23:48.540Z,24.53
2019-04-16T07:26:19.795Z,25.77
2019-04-16T07:29:15.879Z,25.43
2019-04-16T07:32:09.116Z,25.67
2019-04-16T07:34:45.707Z,24.07
2019-04-16T07:37:35.592Z,23.27
2019-04-16T07:40:35.223Z,25.25
2019-04-16T07:43:25.232Z,24.47
2019-04-16T07:46:22.749Z,25.37
2019-04-16T07:49:19.260Z,27.90
2019-04-16T07:52:13.532Z,28.63
2019-04-16T07:55:11.150Z,30.00
2019-04-16T07:57:42.002Z,27.53
2019-04-16T08:00:14.196Z,27.45
2019-04-16T08:02:46.052Z,25.80
2019-04-16T08:05:17.042Z,25.62
2019-04-16T08:07:49.821Z,26.73
2019-04-16T08:10:26.240Z,24.30
2019-04-16T08:13:13.959Z,21.93
2019-04-16T08:15:45.255Z,21.73
2019-04-16T08:18:17.387Z,20.43
2019-04-16T08:21:00.343Z,20.10
2019-04-16T08:23:42.889Z,20.40
2019-04-16T08:26:14.328Z,20.53
2019-04-16T08:28:46.080Z,20.77
2019-04-16T08:31:23.585Z,21.30
2019-04-16T08:33:54.580Z,21.60
2019-04-16T08:36:25.413Z,20.93
2019-04-16T08:38:57.283Z,20.97
2019-04-16T08:41:28.314Z,20.97
2019-04-16T08:44:03.527Z,21.37
2019-04-16T08:46:34.979Z,22.07
2019-04-16T08:49:06.209Z,21.17
2019-04-16T08:51:37.931Z,19.90
2019-04-16T08:54:09.273Z,18.93
2019-04-16T08:56:39.955Z,16.17
2019-04-16T08:59:11.346Z,16.83
2019-04-16T09:01:42.612Z,18.43
2019-04-16T09:04:13.636Z,17.73
2019-04-16T09:06:46.324Z,17.03
2019-04-16T09:09:25.602Z,17.73
2019-04-16T09:12:09.259Z,19.77
2019-04-16T09:14:54.929Z,17.63
2019-04-16T09:17:44.044Z,17.67
2019-04-16T09:20:23.167Z,18.07
2019-04-16T09:27:04.301Z,16.23
2019-04-16T09:29:52.615Z,18.73
2019-04-16T09:33:02.345Z,17.62
2019-04-16T09:35:55.286Z,16.83
2019-04-16T09:38:36.509Z,16.73
2019-04-16T09:41:25.214Z,16.43
2019-04-16T09:43:58.786Z,16.07
2019-04-16T09:46:49.580Z,17.30
2019-04-16T09:49:05.144Z,16.53
2019-04-16T09:51:36.577Z,17.57
2019-04-16T09:54:12.507Z,16.73
2019-04-16T09:56:40.560Z,16.77
2019-04-16T09:59:29.167Z,16.13
2019-04-16T10:02:07.920Z,17.70
2019-04-16T10:04:39.424Z,17.73
2019-04-16T10:07:10.451Z,17.82
2019-04-16T10:09:41.375Z,15.27
2019-04-16T10:12:13.568Z,16.30
2019-04-16T10:14:47.130Z,16.10
2019-04-16T10:17:25.539Z,17.17
2019-04-16T10:20:01.944Z,16.40
2019-04-16T10:22:34.086Z,17.17
2019-04-16T10:25:15.550Z,17.23
2019-04-16T10:28:01.894Z,16.32
2019-04-16T10:30:37.124Z,16.13
2019-04-16T10:33:11.205Z,16.27
2019-04-16T10:36:04.551Z,15.10
2019-04-16T10:38:56.779Z,16.00
2019-04-16T10:41:50.805Z,16.13
2019-04-16T10:44:58.955Z,14.98
2019-04-16T10:47:42.904Z,18.07
2019-04-16T10:50:29.160Z,15.85
2019-04-16T10:53:23.147Z,16.23
2019-04-16T10:56:11.808Z,15.43
2019-04-16T10:59:01.912Z,14.97
2019-04-16T11:02:09.665Z,15.10
2019-04-16T11:05:05.607Z,14.83
2019-04-16T11:07:42.058Z,15.63
2019-04-16T11:10:18.408Z,15.23
2019-04-16T11:12:52.970Z,15.70
2019-04-16T11:15:27.163Z,17.90
2019-04-16T11:17:59.938Z,15.07
2019-04-16T11:20:40.259Z,16.60
2019-04-16T11:23:17.604Z,16.63
2019-04-16T11:25:56.518Z,13.80
2019-04-16T11:28:28.596Z,14.30
2019-04-16T11:31:03.017Z,14.43
2019-04-16T11:33:38.694Z,14.47
2019-04-16T11:36:19.894Z,15.40
2019-04-16T11:38:46.354Z,14.27
2019-04-16T11:41:27.716Z,14.63
2019-04-16T11:44:14.189Z,13.77
2019-04-16T11:46:36.294Z,13.70
2019-04-16T11:49:08.348Z,14.43
2019-04-16T11:51:39.714Z,15.40
2019-04-16T11:54:14.606Z,14.10
2019-04-16T11:56:46.912Z,13.73
2019-04-16T11:59:21.193Z,13.80
2019-04-16T12:02:19.585Z,12.97
2019-04-16T12:05:05.779Z,13.77
2019-04-16T12:07:59.163Z,15.40
2019-04-16T12:10:47.482Z,13.97
2019-04-16T12:13:40.517Z,13.27
2019-04-16T12:16:39.123Z,13.83
2019-04-16T12:19:32.394Z,13.83
2019-04-16T12:22:25.599Z,13.08
2019-04-16T12:25:15.459Z,14.07
2019-04-16T12:28:01.860Z,14.90
2019-04-16T12:30:52.571Z,12.20
2019-04-16T12:33:36.603Z,12.80
2019-04-16T12:36:32.508Z,12.23
2019-04-16T12:39:36.226Z,11.27
2019-04-16T12:42:32.087Z,10.57
2019-04-16T12:45:25.278Z,10.30
2019-04-16T12:48:32.199Z,10.50
2019-04-16T12:51:52.135Z,10.57
2019-04-16T12:54:47.549Z,10.45
2019-04-16T12:57:37.553Z,10.43
2019-04-16T13:00:35.362Z,11.00
2019-04-16T13:03:32.416Z,11.07
2019-04-16T13:06:17.097Z,11.97
2019-04-16T13:09:06.141Z,12.13
2019-04-16T13:11:49.619Z,9.50
2019-04-16T13:14:59.643Z,10.13
2019-04-16T13:18:12.486Z,11.43
2019-04-16T13:21:21.914Z,11.33
2019-04-16T13:24:17.260Z,10.80
2019-04-16T13:27:15.688Z,10.60
2019-04-16T13:29:47.010Z,10.93
2019-04-16T13:32:18.137Z,10.35
2019-04-16T13:34:49.359Z,10.63
2019-04-16T13:37:21.012Z,10.20
2019-04-16T13:40:06.246Z,9.20
2019-04-16T13:42:48.268Z,9.27
2019-04-16T13:45:33.073Z,9.90
2019-04-16T13:48:15.747Z,10.47
2019-04-16T13:50:45.554Z,11.20
2019-04-16T13:53:28.732Z,11.45
2019-04-16T13:56:26.742Z,12.17
2019-04-16T13:59:06.715Z,12.40
2019-04-16T14:01:46.039Z,11.97
2019-04-16T14:04:16.147Z,12.37
2019-04-16T14:06:47.335Z,10.37
2019-04-16T14:09:18.852Z,10.30
2019-04-16T14:11:51.308Z,11.17
2019-04-16T14:14:24.991Z,13.03
2019-04-16T14:16:56.951Z,11.90
2019-04-16T14:19:27.943Z,12.87
2019-04-16T14:22:18.938Z,11.90
2019-04-16T14:24:49.950Z,12.33
2019-04-16T14:27:21.801Z,12.00
2019-04-16T14:29:53.250Z,13.50
2019-04-16T14:32:30.345Z,11.60
2019-04-16T14:35:10.712Z,11.13
2019-04-16T14:37:44.022Z,12.40
2019-04-16T14:40:22.281Z,11.93
2019-04-16T14:42:57.470Z,13.20
2019-04-16T14:46:00.199Z,13.47
2019-04-16T14:48:32.497Z,13.37
2019-04-16T14:51:04.119Z,12.53
2019-04-16T14:53:52.601Z,13.40
2019-04-16T14:56:43.498Z,13.07
2019-04-16T14:59:40.401Z,12.57
2019-04-16T15:02:30.683Z,12.47
2019-04-16T15:05:34.162Z,13.90
2019-04-16T15:08:23.116Z,13.17
2019-04-16T15:11:12.149Z,13.40
2019-04-16T15:14:08.518Z,13.40
2019-04-16T15:17:02.241Z,12.80
2019-04-16T15:19:41.622Z,13.70
2019-04-16T15:22:41.148Z,12.47
2019-04-16T15:25:31.144Z,12.60
2019-04-16T15:28:34.751Z,14.43
2019-04-16T15:31:19.064Z,13.90
2019-04-16T15:34:09.845Z,13.63
2019-04-16T15:36:44.101Z,16.37
2019-04-16T15:39:28.354Z,12.78
2019-04-16T15:42:17.745Z,14.57
2019-04-16T15:45:00.918Z,14.27
2019-04-16T15:47:55.644Z,12.95
2019-04-16T15:50:52.771Z,15.35
2019-04-16T15:53:43.620Z,13.53
2019-04-16T15:56:33.242Z,13.40
2019-04-16T15:59:09.092Z,14.00
2019-04-16T16:02:02.021Z,14.33
2019-04-16T16:04:41.937Z,12.57
2019-04-16T16:07:16.143Z,12.53
2019-04-16T16:10:19.401Z,13.20
2019-04-16T16:12:53.633Z,13.23
2019-04-16T16:15:25.415Z,13.00
2019-04-16T16:17:56.566Z,12.63
2019-04-16T16:20:28.011Z,12.53
2019-04-16T16:23:00.587Z,11.93
2019-04-16T16:25:31.512Z,12.70
2019-04-16T16:28:08.915Z,13.35
2019-04-16T16:30:40.079Z,13.00
2019-04-16T16:33:11.045Z,13.23
2019-04-16T16:35:56.545Z,13.03
2019-04-16T16:38:15.993Z,14.57
2019-04-16T16:40:49.755Z,14.37
2019-04-16T16:43:21.357Z,13.63
2019-04-16T16:46:26.928Z,13.30
2019-04-16T16:48:58.706Z,11.93
2019-04-16T16:51:30.792Z,14.27
2019-04-16T16:54:12.157Z,13.48
2019-04-16T16:56:52.139Z,13.85
2019-04-16T16:59:28.509Z,14.13
2019-04-16T17:02:25.692Z,14.10
2019-04-16T17:04:57.184Z,15.30
2019-04-16T17:07:28.495Z,14.93
2019-04-16T17:09:59.687Z,15.33
2019-04-16T17:12:30.580Z,15.00
2019-04-16T17:15:01.518Z,15.60
2019-04-16T17:17:32.916Z,15.45
2019-04-16T17:20:04.633Z,15.10
2019-04-16T17:22:36.251Z,15.77
2019-04-16T17:25:10.503Z,16.00
2019-04-16T17:27:51.093Z,16.20
2019-04-16T17:30:14.246Z,16.27
2019-04-16T17:32:45.563Z,14.90
2019-04-16T17:35:16.732Z,15.63
2019-04-16T17:37:48.065Z,16.73
2019-04-16T17:40:38.719Z,17.40
2019-04-16T17:43:20.684Z,17.20
2019-04-16T17:45:59.274Z,17.40
2019-04-16T17:48:52.587Z,17.43
2019-04-16T17:51:28.034Z,17.40
2019-04-16T17:54:09.483Z,17.53
2019-04-16T17:57:05.563Z,17.63
2019-04-16T17:59:49.969Z,18.13
2019-04-16T18:02:44.024Z,23.93
2019-04-16T18:05:27.463Z,22.23
2019-04-16T18:08:19.872Z,18.63
2019-04-16T18:11:18.869Z,18.57
2019-04-16T18:14:04.395Z,17.97
2019-04-16T18:16:39.498Z,19.17
2019-04-16T18:19:24.765Z,19.30
2019-04-16T18:22:15.596Z,23.00
2019-04-16T18:25:08.129Z,19.17
2019-04-16T18:27:50.263Z,19.23
2019-04-16T18:30:40.540Z,16.77
2019-04-16T18:33:31.439Z,26.48
2019-04-16T18:36:14.227Z,18.83
2019-04-16T18:38:56.268Z,17.62
2019-04-16T18:41:50.591Z,17.70
2019-04-16T18:44:43.462Z,18.27
2019-04-16T18:47:36.315Z,18.57
2019-04-16T18:50:11.613Z,17.60
2019-04-16T18:52:42.738Z,18.73
2019-04-16T18:55:13.638Z,19.50
2019-04-16T18:57:44.421Z,19.10
2019-04-16T19:00:33.234Z,17.07
2019-04-16T19:03:06.635Z,16.93
2019-04-16T19:05:38.055Z,17.93
2019-04-16T19:08:20.330Z,17.40
2019-04-16T19:11:06.677Z,21.70
2019-04-16T19:13:38.221Z,22.73
2019-04-16T19:16:09.702Z,29.47
2019-04-16T19:18:41.281Z,31.33
2019-04-16T19:21:12.388Z,28.50
2019-04-16T19:23:45.262Z,21.77
2019-04-16T19:26:21.576Z,23.13
2019-04-16T19:28:52.547Z,24.00
2019-04-16T19:31:23.995Z,19.73
2019-04-16T19:33:55.811Z,17.20
2019-04-16T19:36:27.520Z,16.93
2019-04-16T19:39:06.729Z,16.80
2019-04-16T19:41:41.256Z,17.77
2019-04-16T19:44:16.679Z,15.90
2019-04-16T19:46:52.665Z,16.20
2019-04-16T19:49:22.130Z,14.93
2019-04-16T19:51:53.269Z,15.77
2019-04-16T19:54:23.898Z,15.13
2019-04-16T19:56:55.153Z,15.67
2019-04-16T19:59:26.178Z,16.67
2019-04-16T20:01:59.734Z,14.87
2019-04-16T20:04:31.636Z,18.10
2019-04-16T20:07:04.076Z,16.73
2019-04-16T20:09:38.940Z,15.43
2019-04-16T20:12:08.845Z,16.30
2019-04-16T20:14:39.921Z,15.60
2019-04-16T20:17:11.677Z,15.93
2019-04-16T20:20:01.498Z,16.20
2019-04-16T20:22:35.702Z,15.60
2019-04-16T20:25:07.666Z,15.30
2019-04-16T20:27:39.598Z,15.25
2019-04-16T20:30:13.442Z,15.13
2019-04-16T20:32:44.386Z,15.33
2019-04-16T20:35:19.022Z,16.97
2019-04-16T20:37:55.130Z,15.53
2019-04-16T20:40:35.595Z,17.02
2019-04-16T20:43:11.391Z,15.30
2019-04-16T20:45:42.347Z,19.37
2019-04-16T20:48:13.298Z,15.72
2019-04-16T20:50:43.862Z,20.17
2019-04-16T20:53:14.936Z,15.00
2019-04-16T20:55:48.246Z,15.45
2019-04-16T20:58:19.543Z,15.80
2019-04-16T21:00:51.886Z,15.60
2019-04-16T21:03:22.964Z,15.60
2019-04-16T21:05:59.116Z,18.47
2019-04-16T21:08:27.281Z,31.20
2019-04-16T21:10:59.427Z,16.97
2019-04-16T21:13:31.248Z,16.73
2019-04-16T21:16:03.652Z,18.03
2019-04-16T21:18:34.347Z,18.60
2019-04-16T21:21:06.733Z,18.73
2019-04-16T21:23:39.084Z,29.87
2019-04-16T21:26:10.002Z,50.93
2019-04-16T21:29:06.269Z,42.27
2019-04-16T21:31:43.956Z,39.48
2019-04-16T21:34:40.499Z,22.27
2019-04-16T21:37:34.037Z,24.55
2019-04-16T21:40:10.052Z,22.43
2019-04-16T21:42:42.291Z,15.78
2019-04-16T21:45:16.535Z,15.07
2019-04-16T21:47:47.522Z,15.13
2019-04-16T21:50:19.979Z,15.43
2019-04-16T21:52:55.737Z,16.00
2019-04-16T21:55:28.198Z,14.90
2019-04-16T21:58:01.249Z,17.60
2019-04-16T22:01:05.232Z,17.37
2019-04-16T22:03:45.346Z,14.90
2019-04-16T22:06:20.047Z,15.27
2019-04-16T22:08:49.183Z,15.63
2019-04-16T22:11:22.639Z,15.23
2019-04-16T22:13:55.452Z,15.48
2019-04-16T22:16:32.050Z,15.40
2019-04-16T22:19:05.000Z,15.53
2019-04-16T22:21:36.043Z,15.93
2019-04-16T22:24:09.950Z,15.33
2019-04-16T22:26:52.544Z,15.40
2019-04-16T22:29:24.491Z,15.70
2019-04-16T22:31:56.875Z,14.43
2019-04-16T22:34:31.197Z,15.48
2019-04-16T22:37:02.762Z,15.10
2019-04-16T22:39:58.902Z,15.50
2019-04-16T22:42:34.893Z,15.60
2019-04-16T22:45:30.599Z,15.30
2019-04-16T22:48:01.828Z,15.20
2019-04-16T22:50:34.774Z,15.50
2019-04-16T22:53:06.522Z,14.57
2019-04-16T22:55:37.404Z,14.97
2019-04-16T22:58:22.642Z,24.13
2019-04-16T23:00:58.140Z,25.48
2019-04-16T23:03:29.769Z,19.53
2019-04-16T23:06:07.659Z,49.77
2019-04-16T23:08:33.647Z,14.70
2019-04-16T23:11:04.814Z,15.00
2019-04-16T23:13:35.762Z,20.47
2019-04-16T23:16:07.454Z,15.53
2019-04-16T23:18:39.048Z,16.27
2019-04-16T23:21:11.966Z,16.70
2019-04-16T23:23:43.158Z,14.83
2019-04-16T23:26:15.060Z,14.73
2019-04-16T23:28:46.375Z,14.17
2019-04-16T23:31:19.621Z,14.20
2019-04-16T23:33:52.158Z,14.53
2019-04-16T23:36:23.202Z,14.37
2019-04-16T23:38:55.769Z,14.70
2019-04-16T23:41:26.647Z,14.23
2019-04-16T23:44:10.214Z,14.23
2019-04-16T23:47:11.766Z,13.57
2019-04-16T23:50:01.623Z,14.03
2019-04-16T23:52:35.524Z,14.38
2019-04-16T23:55:17.551Z,13.53
2019-04-16T23:58:07.054Z,14.00
